Dziwno, Poland

2:41 PM CEST on June 24, 2018 (GMT +0200)
GRUDZ PAPA | | Change Station

Elev 85 ft 53.49 °N, 18.75 °E | Updated 18 seconds ago

Mostly Cloudy
Mostly Cloudy
63.3 °F
Feels Like 63.3 °F
N
0
Wind Variable Wind from SSW
Gusts 0.0 mph

Today
High -- | Low -- °F
--% Chance of Precip.
Yesterday
High -- | Low -- °F
Precip. -- in
Pressure 29.95 in
Visibility 6.2 miles
Clouds Few 2200 ft
Scattered Clouds 4700 ft
Dew Point 54 °F
Humidity 72%
Rainfall 0.67 in
Snow Depth Not available.
4:15 AM 9:18 PM
Waxing Gibbous, 88% visible
METAR EPBY 241230Z 28004KT 250V330 9999 FEW022 SCT047 16/11 Q1014
Pressure 29.95 in
Visibility 6.2 miles
Clouds Few 2200 ft
Scattered Clouds 4700 ft
Dew Point 54 °F
Humidity 72%
Rainfall 0.67 in
Snow Depth Not available.
4:15 AM 9:18 PM
Waxing Gibbous, 88% visible
METAR EPBY 241230Z 28004KT 250V330 9999 FEW022 SCT047 16/11 Q1014

Get Severe Weather Alerts

Thanks for signing up!

Be on the lookout for a verification email in your inbox.

You'll start receiving the daily forecast at 6 AM.

×

10-Day Weather Forecast

×

Almanac

Astronomy

Jun. 24, 2018 Rise Set
Actual Time
Civil Twilight
Nautical Twilight
Astronomical Twilight
Moon
Length of Visible Light
Length of Day
Tomorrow will be .
, % of the Moon is Illuminated

Today's Extremes

Country Highs Country Lows

Community

WunderPhotos

Category 6

Welcome to Category 6. This is the collective home for Weather Underground's featured writeups by Dr. Jeff Masters (right), Bob Henson (left), Chris Burt, and other regular contributors.

Nearby

Air Quality

  Air Quality AQ Index Pollutant
Not available.

Snow Depth

Station Depth Elevation

Earthquake Activity

City Distance Mag. Time & Date
Minimum magnitude displayed is 2.5.

Coastal Water Temperatures

Place Temperature

Stations

Nearby Weather Stations

Station Location Temp. Windchill Dew Point Humidity Wind Precip. Elev Updated Type